createdAt,value
2018-12-25T00:00:19.993Z,99057.80
2018-12-25T00:02:48.171Z,99064.81
2018-12-25T00:05:16.394Z,99069.63
2018-12-25T00:07:44.703Z,99071.53
2018-12-25T00:10:12.984Z,99078.80
2018-12-25T00:12:41.162Z,99076.64
2018-12-25T00:15:09.434Z,99080.95
2018-12-25T00:17:37.627Z,99079.86
2018-12-25T00:20:05.841Z,99079.36
2018-12-25T00:22:33.999Z,99084.45
2018-12-25T00:25:02.245Z,99092.79
2018-12-25T00:27:30.426Z,99087.41
2018-12-25T00:29:58.624Z,99086.05
2018-12-25T00:32:26.844Z,99086.39
2018-12-25T00:34:55.005Z,99077.23
2018-12-25T00:37:23.202Z,99075.62
2018-12-25T00:39:51.350Z,99077.20
2018-12-25T00:42:19.548Z,99074.51
2018-12-25T00:44:47.776Z,99069.97
2018-12-25T00:47:16.058Z,99055.67
2018-12-25T00:49:44.253Z,99054.35
2018-12-25T00:52:12.430Z,99053.54
2018-12-25T00:54:40.621Z,99052.75
2018-12-25T00:57:08.827Z,99054.61
2018-12-25T00:59:37.081Z,99045.75
2018-12-25T01:02:05.338Z,99043.87
2018-12-25T01:04:33.462Z,99046.56
2018-12-25T01:07:01.647Z,99044.12
2018-12-25T01:09:29.900Z,99042.83
2018-12-25T01:11:58.121Z,99046.34
2018-12-25T01:14:26.299Z,99042.58
2018-12-25T01:16:54.495Z,99053.31
2018-12-25T01:19:23.457Z,99052.78
2018-12-25T01:21:51.960Z,99037.20
2018-12-25T01:24:20.141Z,99036.33
2018-12-25T01:26:48.423Z,99038.27
2018-12-25T01:29:16.667Z,99032.63
2018-12-25T01:31:44.859Z,99036.11
2018-12-25T01:34:13.004Z,99039.05
2018-12-25T01:36:41.317Z,99043.65
2018-12-25T01:39:09.499Z,99042.58
2018-12-25T01:41:37.747Z,99045.55
2018-12-25T01:44:05.863Z,99044.73
2018-12-25T01:46:34.264Z,99049.31
2018-12-25T01:49:02.494Z,99054.13
2018-12-25T01:51:30.681Z,99057.38
2018-12-25T01:53:58.863Z,99068.70
2018-12-25T01:56:27.025Z,99089.39
2018-12-25T01:58:55.229Z,99094.77
2018-12-25T02:01:23.437Z,99105.82
2018-12-25T02:03:51.712Z,99107.16
2018-12-25T02:06:19.914Z,99114.95
2018-12-25T02:08:48.105Z,99116.58
2018-12-25T02:11:16.317Z,99106.10
2018-12-25T02:13:44.553Z,99103.91
2018-12-25T02:16:12.735Z,99102.34
2018-12-25T02:18:40.954Z,99103.69
2018-12-25T02:21:09.162Z,99100.72
2018-12-25T02:23:37.394Z,99104.75
2018-12-25T02:26:05.626Z,99095.61
2018-12-25T02:28:33.789Z,99099.14
2018-12-25T02:31:01.952Z,99095.89
2018-12-25T02:33:30.177Z,99097.23
2018-12-25T02:35:58.397Z,99100.18
2018-12-25T02:38:26.507Z,99089.95
2018-12-25T02:40:54.709Z,99081.38
2018-12-25T02:43:22.944Z,99085.38
2018-12-25T02:45:51.133Z,99079.44
2018-12-25T02:48:19.629Z,99085.66
2018-12-25T02:50:47.870Z,99080.53
2018-12-25T02:53:16.085Z,99086.76
2018-12-25T02:55:44.233Z,99082.44
2018-12-25T02:58:12.461Z,99083.50
2018-12-25T03:00:40.643Z,99087.56
2018-12-25T03:03:08.815Z,99088.94
2018-12-25T03:05:37.020Z,99076.55
2018-12-25T03:08:05.178Z,99069.55
2018-12-25T03:10:33.429Z,99067.95
2018-12-25T03:13:01.591Z,99067.92
2018-12-25T03:15:29.753Z,99067.95
2018-12-25T03:17:57.952Z,99065.51
2018-12-25T03:20:27.313Z,99059.31
2018-12-25T03:22:55.518Z,99060.41
2018-12-25T03:25:23.743Z,99066.86
2018-12-25T03:27:51.932Z,99057.72
2018-12-25T03:30:20.134Z,99060.41
2018-12-25T03:32:48.379Z,99053.94
2018-12-25T03:35:16.636Z,99052.88
2018-12-25T03:37:44.812Z,99052.62
2018-12-25T03:40:13.040Z,99059.34
2018-12-25T03:42:41.222Z,99056.37
2018-12-25T03:45:09.462Z,99059.91
2018-12-25T03:47:37.717Z,99063.09
2018-12-25T03:50:10.782Z,99065.28
2018-12-25T03:52:36.336Z,99069.59
2018-12-25T03:55:04.623Z,99071.45
2018-12-25T03:57:32.870Z,99069.83
2018-12-25T04:00:01.253Z,99070.08
2018-12-25T04:02:29.418Z,99070.64
2018-12-25T04:04:57.592Z,99065.05
2018-12-25T04:07:25.735Z,99062.34
2018-12-25T04:09:54.045Z,99061.30
2018-12-25T04:12:22.298Z,99059.39
2018-12-25T04:14:50.510Z,99055.05
2018-12-25T04:17:18.704Z,99055.87
2018-12-25T04:19:46.853Z,99055.84
2018-12-25T04:22:15.077Z,99056.42
2018-12-25T04:24:43.308Z,99061.53
2018-12-25T04:27:11.462Z,99055.34
2018-12-25T04:29:39.658Z,99057.49
2018-12-25T04:32:07.839Z,99054.23
2018-12-25T04:34:36.078Z,99054.50
2018-12-25T04:37:04.258Z,99054.52
2018-12-25T04:39:32.432Z,99053.98
2018-12-25T04:42:00.644Z,99049.70
2018-12-25T04:44:28.867Z,99046.45
2018-12-25T04:46:56.995Z,99042.70
2018-12-25T04:49:25.167Z,99044.30
2018-12-25T04:51:53.414Z,99040.80
2018-12-25T04:54:21.575Z,99046.45
2018-12-25T04:56:49.763Z,99050.48
2018-12-25T04:59:17.964Z,99059.65
2018-12-25T05:01:46.163Z,99056.15
2018-12-25T05:04:14.333Z,99057.20
2018-12-25T05:06:42.630Z,98959.99
2018-12-25T05:09:10.817Z,99048.86
2018-12-25T05:11:39.006Z,99048.08
2018-12-25T05:14:07.153Z,99050.48
2018-12-25T05:16:35.311Z,99046.23
2018-12-25T05:19:03.501Z,99043.53
2018-12-25T05:21:31.685Z,99041.69
2018-12-25T05:23:59.847Z,99048.10
2018-12-25T05:26:28.047Z,99045.16
2018-12-25T05:28:56.240Z,99044.34
2018-12-25T05:31:24.386Z,99051.88
2018-12-25T05:33:52.568Z,99056.98
2018-12-25T05:36:20.813Z,99056.98
2018-12-25T05:38:49.031Z,99059.98
2018-12-25T05:41:17.202Z,99055.13
2018-12-25T05:43:45.378Z,99058.05
2018-12-25T05:46:13.610Z,99063.98
2018-12-25T05:48:41.834Z,99068.55
2018-12-25T05:51:10.008Z,99064.27
2018-12-25T05:53:38.226Z,99068.83
2018-12-25T05:56:06.409Z,99072.31
2018-12-25T05:58:34.614Z,99067.48
2018-12-25T06:01:02.845Z,99069.64
2018-12-25T06:03:31.025Z,99064.04
2018-12-25T06:05:59.283Z,99068.05
2018-12-25T06:08:27.491Z,99066.70
2018-12-25T06:10:55.734Z,99067.80
2018-12-25T06:13:23.868Z,99064.27
2018-12-25T06:15:52.046Z,99075.02
2018-12-25T06:18:20.273Z,99082.84
2018-12-25T06:20:55.111Z,99085.50
2018-12-25T06:23:18.270Z,99079.34
2018-12-25T06:25:46.434Z,99073.17
2018-12-25T06:28:14.557Z,99064.82
2018-12-25T06:30:42.766Z,99061.07
2018-12-25T06:33:10.966Z,99054.34
2018-12-25T06:35:39.221Z,99061.59
2018-12-25T06:38:07.391Z,99066.17
2018-12-25T06:40:35.652Z,99073.45
2018-12-25T06:43:03.896Z,99078.27
2018-12-25T06:45:32.089Z,99078.83
2018-12-25T06:48:00.290Z,99072.36
2018-12-25T06:50:28.507Z,99067.23
2018-12-25T06:52:56.703Z,99071.83
2018-12-25T06:55:24.902Z,99072.89
2018-12-25T06:57:53.077Z,99065.09
2018-12-25T07:00:21.368Z,99069.94
2018-12-25T07:02:49.522Z,99075.07
2018-12-25T07:05:17.706Z,99075.85
2018-12-25T07:07:45.994Z,99079.63
2018-12-25T07:10:14.214Z,99084.48
2018-12-25T07:12:42.394Z,99080.98
2018-12-25T07:15:10.605Z,99078.03
2018-12-25T07:17:38.792Z,99078.29
2018-12-25T07:20:06.926Z,99075.05
2018-12-25T07:22:44.306Z,99079.61
2018-12-25T07:25:12.563Z,99078.03
2018-12-25T07:27:40.748Z,99070.75
2018-12-25T07:30:08.955Z,99064.58
2018-12-25T07:32:37.107Z,99074.81
2018-12-25T07:35:05.283Z,99076.95
2018-12-25T07:37:33.486Z,99085.55
2018-12-25T07:40:01.625Z,99083.44
2018-12-25T07:42:29.757Z,99084.52
2018-12-25T07:44:57.925Z,99084.52
2018-12-25T07:47:26.074Z,99081.56
2018-12-25T07:49:54.294Z,99073.48
2018-12-25T07:52:22.493Z,99073.20
2018-12-25T07:54:50.670Z,99081.00
2018-12-25T07:57:18.880Z,99091.23
2018-12-25T07:59:47.061Z,99088.81
2018-12-25T08:02:15.207Z,99084.78
2018-12-25T08:04:43.366Z,99085.05
2018-12-25T08:07:11.624Z,99092.87
2018-12-25T08:09:39.765Z,99093.65
2018-12-25T08:12:08.027Z,99088.80
2018-12-25T08:14:36.174Z,99094.70
2018-12-25T08:17:04.338Z,99101.69
2018-12-25T08:19:32.565Z,99093.87
2018-12-25T08:22:00.854Z,99098.45
2018-12-25T08:24:29.050Z,99096.50
2018-12-25T08:26:57.266Z,99097.87
2018-12-25T08:29:25.566Z,99085.28
2018-12-25T08:31:53.798Z,99087.98
2018-12-25T08:34:22.030Z,99084.22
2018-12-25T08:36:50.251Z,99083.64
2018-12-25T08:39:18.377Z,99085.03
2018-12-25T08:41:46.598Z,99089.34
2018-12-25T08:44:14.765Z,99078.30
2018-12-25T08:46:42.882Z,99084.80
2018-12-25T08:49:11.015Z,99092.59
2018-12-25T08:51:39.177Z,99094.44
2018-12-25T08:54:07.307Z,99089.34
2018-12-25T08:56:35.453Z,99090.69
2018-12-25T08:59:03.574Z,99091.53
2018-12-25T09:01:31.685Z,99102.52
2018-12-25T09:03:59.818Z,99101.45
2018-12-25T09:06:27.933Z,99116.80
2018-12-25T09:08:56.070Z,99120.55
2018-12-25T09:11:24.282Z,99122.19
2018-12-25T09:13:52.424Z,99117.36
2018-12-25T09:16:20.581Z,99129.16
2018-12-25T09:18:48.697Z,99133.20
2018-12-25T09:21:16.833Z,99124.34
2018-12-25T09:23:44.945Z,99107.44
2018-12-25T09:26:13.064Z,99105.27
2018-12-25T09:28:41.205Z,99105.53
2018-12-25T09:31:09.342Z,99109.55
2018-12-25T09:33:37.469Z,99116.83
2018-12-25T09:36:05.590Z,99121.14
2018-12-25T09:38:33.701Z,99123.02
2018-12-25T09:41:01.874Z,99123.27
2018-12-25T09:43:29.994Z,99123.80
2018-12-25T09:45:58.123Z,99130.27
2018-12-25T09:48:26.274Z,99128.11
2018-12-25T09:50:54.414Z,99133.99
2018-12-25T09:53:22.558Z,99133.44
2018-12-25T09:55:50.678Z,99125.95
2018-12-25T09:58:18.806Z,99123.28
2018-12-25T10:00:46.931Z,99122.73
2018-12-25T10:03:15.063Z,99120.56
2018-12-25T10:05:43.222Z,99114.94
2018-12-25T10:08:11.369Z,99105.52
2018-12-25T10:10:39.481Z,99088.32
2018-12-25T10:13:07.676Z,99086.95
2018-12-25T10:15:35.828Z,99089.92
2018-12-25T10:18:04.006Z,99090.45
2018-12-25T10:20:32.105Z,99093.94
2018-12-25T10:23:00.239Z,99100.42
2018-12-25T10:25:28.365Z,99091.23
2018-12-25T10:27:56.493Z,99089.94
2018-12-25T10:30:24.634Z,99079.98
2018-12-25T10:32:52.754Z,99074.88
2018-12-25T10:35:20.986Z,99073.25
2018-12-25T10:37:49.103Z,99063.58
2018-12-25T10:40:17.267Z,99058.51
2018-12-25T10:42:45.411Z,99046.36
2018-12-25T10:45:13.566Z,99043.93
2018-12-25T10:47:41.692Z,99040.98
2018-12-25T10:50:09.827Z,99036.39
2018-12-25T10:52:37.961Z,99038.02
2018-12-25T10:55:06.159Z,99031.30
2018-12-25T10:57:34.268Z,99024.84
2018-12-25T11:00:02.405Z,99024.87
2018-12-25T11:02:30.554Z,99024.84
2018-12-25T11:04:58.673Z,99026.22
2018-12-25T11:07:26.900Z,99015.48
2018-12-25T11:09:55.355Z,99015.46
2018-12-25T11:12:23.581Z,99015.77
2018-12-25T11:14:51.707Z,99022.99
2018-12-25T11:17:19.826Z,99028.09
2018-12-25T11:19:47.965Z,99032.13
2018-12-25T11:22:19.772Z,99027.31
2018-12-25T11:24:45.871Z,99020.03
2018-12-25T11:27:13.994Z,99025.70
2018-12-25T11:29:42.143Z,99023.55
2018-12-25T11:32:10.291Z,99013.58
2018-12-25T11:34:38.452Z,99013.58
2018-12-25T11:37:06.756Z,99009.80
2018-12-25T11:39:34.882Z,99014.14
2018-12-25T11:42:03.010Z,99023.53
2018-12-25T11:44:31.183Z,99023.83
2018-12-25T11:46:59.293Z,99033.77
2018-12-25T11:49:27.445Z,99040.23
2018-12-25T11:51:55.582Z,99043.19
2018-12-25T11:54:23.701Z,99042.65
2018-12-25T11:56:51.870Z,99048.59
2018-12-25T11:59:20.071Z,99053.12
2018-12-25T12:01:48.169Z,99061.47
2018-12-25T12:04:16.304Z,99069.27
2018-12-25T12:06:44.419Z,99063.91
2018-12-25T12:09:12.579Z,99062.30
2018-12-25T12:11:40.695Z,99064.73
2018-12-25T12:14:08.841Z,99063.11
2018-12-25T12:16:36.950Z,99065.77
2018-12-25T12:19:05.069Z,99071.69
2018-12-25T12:21:33.198Z,99073.28
2018-12-25T12:24:01.342Z,99084.34
2018-12-25T12:26:29.497Z,99093.77
2018-12-25T12:28:57.614Z,99092.16
2018-12-25T12:31:25.741Z,99092.17
2018-12-25T12:33:53.963Z,99096.69
2018-12-25T12:36:22.158Z,99086.20
2018-12-25T12:38:50.302Z,99077.37
2018-12-25T12:41:18.439Z,99087.86
2018-12-25T12:43:46.566Z,99098.33
2018-12-25T12:46:14.702Z,99096.95
2018-12-25T12:48:42.818Z,99013.06
2018-12-25T12:51:10.983Z,99092.42
2018-12-25T12:53:39.099Z,99107.51
2018-12-25T12:56:07.218Z,99116.09
2018-12-25T12:58:35.441Z,99116.89
2018-12-25T13:01:03.595Z,99117.71
2018-12-25T13:03:31.840Z,99105.61
2018-12-25T13:05:59.957Z,99110.44
2018-12-25T13:08:28.077Z,99114.75
2018-12-25T13:10:56.203Z,99126.03
2018-12-25T13:13:24.414Z,99120.91
2018-12-25T13:15:52.529Z,99119.06
2018-12-25T13:18:20.658Z,99119.33
2018-12-25T13:20:48.784Z,99116.92
2018-12-25T13:23:16.952Z,99120.70
2018-12-25T13:25:45.069Z,99121.75
2018-12-25T13:28:13.275Z,99113.44
2018-12-25T13:30:41.391Z,99113.70
2018-12-25T13:33:09.526Z,99107.77
2018-12-25T13:35:37.625Z,99111.28
2018-12-25T13:38:05.762Z,99107.52
2018-12-25T13:40:33.898Z,99103.47
2018-12-25T13:43:02.030Z,99099.99
2018-12-25T13:45:30.151Z,99108.85
2018-12-25T13:47:58.275Z,99109.66
2018-12-25T13:50:26.391Z,99120.98
2018-12-25T13:53:02.559Z,99118.26
2018-12-25T13:55:24.299Z,99114.67
2018-12-25T13:57:52.439Z,99110.28
2018-12-25T14:00:22.553Z,99120.00
2018-12-25T14:02:51.369Z,99118.45
2018-12-25T14:05:19.586Z,99114.41
2018-12-25T14:07:47.668Z,99112.55
2018-12-25T14:10:16.170Z,99113.36
2018-12-25T14:12:44.342Z,99120.12
2018-12-25T14:15:12.762Z,99124.91
2018-12-25T14:17:40.854Z,99132.14
2018-12-25T14:20:09.019Z,99138.65
2018-12-25T14:22:37.549Z,99136.22
2018-12-25T14:25:06.022Z,99138.67
2018-12-25T14:27:34.122Z,99149.36
2018-12-25T14:30:02.611Z,99149.62
2018-12-25T14:32:30.725Z,99144.81
2018-12-25T14:34:58.846Z,99143.47
2018-12-25T14:37:27.004Z,99142.41
2018-12-25T14:39:55.125Z,99131.08
2018-12-25T14:42:23.245Z,99130.27
2018-12-25T14:44:51.383Z,99130.51
2018-12-25T14:47:19.519Z,99135.89
2018-12-25T14:49:47.690Z,99135.34
2018-12-25T14:52:15.790Z,99138.62
2018-12-25T14:54:43.904Z,99148.56
2018-12-25T14:57:12.063Z,99148.33
2018-12-25T14:59:40.257Z,99151.27
2018-12-25T15:02:08.456Z,99157.89
2018-12-25T15:04:36.561Z,99164.36
2018-12-25T15:07:05.371Z,99159.56
2018-12-25T15:09:33.477Z,99156.09
2018-12-25T15:12:01.622Z,99155.02
2018-12-25T15:14:29.754Z,99159.59
2018-12-25T15:16:57.873Z,99166.86
2018-12-25T15:19:26.018Z,99168.20
2018-12-25T15:21:54.213Z,99168.69
2018-12-25T15:24:22.586Z,99163.01
2018-12-25T15:26:50.754Z,99162.23
2018-12-25T15:29:18.966Z,99165.75
2018-12-25T15:31:47.080Z,99173.26
2018-12-25T15:34:15.282Z,99173.28
2018-12-25T15:36:43.513Z,99171.11
2018-12-25T15:39:12.918Z,99170.86
2018-12-25T15:41:41.053Z,99172.16
2018-12-25T15:44:09.192Z,99177.00
2018-12-25T15:46:37.406Z,99172.14
2018-12-25T15:49:05.567Z,99174.34
2018-12-25T15:51:33.702Z,99176.39
2018-12-25T15:54:01.824Z,99179.31
2018-12-25T15:56:30.064Z,99162.79
2018-12-25T15:58:58.118Z,99164.80
2018-12-25T16:01:26.245Z,99165.55
2018-12-25T16:03:54.411Z,99171.61
2018-12-25T16:06:22.570Z,99164.67
2018-12-25T16:08:50.684Z,99171.02
2018-12-25T16:11:18.834Z,99168.50
2018-12-25T16:13:46.949Z,99170.63
2018-12-25T16:16:15.099Z,99172.42
2018-12-25T16:18:43.227Z,99178.23
2018-12-25T16:21:11.346Z,99174.91
2018-12-25T16:23:45.260Z,99183.06
2018-12-25T16:26:09.262Z,99183.32
2018-12-25T16:28:37.401Z,99177.36
2018-12-25T16:31:05.580Z,99171.72
2018-12-25T16:33:33.706Z,99167.12
2018-12-25T16:36:01.825Z,99167.36
2018-12-25T16:38:29.959Z,99170.37
2018-12-25T16:40:58.110Z,99170.84
2018-12-25T16:43:26.234Z,99172.75
2018-12-25T16:45:54.354Z,99159.27
2018-12-25T16:48:22.482Z,99163.05
2018-12-25T16:50:50.596Z,99157.94
2018-12-25T16:53:18.750Z,99156.03
2018-12-25T16:55:46.869Z,99151.49
2018-12-25T16:58:15.186Z,99144.76
2018-12-25T17:00:43.309Z,99144.23
2018-12-25T17:03:12.033Z,99136.69
2018-12-25T17:05:40.525Z,99127.30
2018-12-25T17:08:08.622Z,99131.25
2018-12-25T17:10:37.031Z,99127.75
2018-12-25T17:13:05.217Z,99134.20
2018-12-25T17:15:33.409Z,99130.95
2018-12-25T17:18:01.569Z,99123.99
2018-12-25T17:20:29.767Z,99125.84
2018-12-25T17:22:57.908Z,99123.09
2018-12-25T17:25:26.418Z,99128.14
2018-12-25T17:27:55.056Z,99131.70
2018-12-25T17:30:23.405Z,99128.84
2018-12-25T17:32:51.586Z,99122.03
2018-12-25T17:35:19.975Z,99124.13
2018-12-25T17:37:48.281Z,99129.52
2018-12-25T17:40:16.591Z,99137.09
2018-12-25T17:42:45.452Z,99134.88
2018-12-25T17:45:13.574Z,99133.89
2018-12-25T17:47:42.027Z,99132.71
2018-12-25T17:50:10.647Z,99132.23
2018-12-25T17:52:38.800Z,99128.42
2018-12-25T17:55:06.939Z,99133.27
2018-12-25T17:57:35.077Z,99134.91
2018-12-25T18:00:03.231Z,99132.23
2018-12-25T18:02:31.495Z,99128.14
2018-12-25T18:04:59.971Z,99128.92
2018-12-25T18:07:28.144Z,99131.92
2018-12-25T18:09:56.293Z,99131.33
2018-12-25T18:12:24.481Z,99125.16
2018-12-25T18:14:52.714Z,99117.56
2018-12-25T18:17:21.150Z,99118.38
2018-12-25T18:19:49.452Z,98977.84
2018-12-25T18:22:17.831Z,99116.46
2018-12-25T18:24:46.100Z,99111.11
2018-12-25T18:27:14.258Z,99117.56
2018-12-25T18:29:42.538Z,99118.06
2018-12-25T18:32:10.740Z,99104.88
2018-12-25T18:34:39.276Z,99117.52
2018-12-25T18:37:07.720Z,99116.11
2018-12-25T18:39:36.245Z,99118.48
2018-12-25T18:42:04.394Z,99123.63
2018-12-25T18:44:32.559Z,99120.02
2018-12-25T18:47:01.177Z,99117.64
2018-12-25T18:49:29.418Z,99112.57
2018-12-25T18:51:57.711Z,99114.73
2018-12-25T18:54:27.957Z,99110.97
2018-12-25T18:56:56.045Z,99114.63
2018-12-25T18:59:24.257Z,99119.23
2018-12-25T19:01:53.212Z,99112.43
2018-12-25T19:04:21.850Z,99103.67
2018-12-25T19:06:50.477Z,99099.56
2018-12-25T19:09:19.169Z,99102.99
2018-12-25T19:11:47.822Z,99106.22
2018-12-25T19:14:16.386Z,99106.96
2018-12-25T19:16:45.548Z,99101.61
2018-12-25T19:19:13.621Z,99094.13
2018-12-25T19:21:42.571Z,99093.85
2018-12-25T19:24:11.365Z,99097.53
2018-12-25T19:26:39.599Z,99095.29
2018-12-25T19:29:08.203Z,99087.85
2018-12-25T19:31:36.579Z,99095.25
2018-12-25T19:34:04.743Z,99090.30
2018-12-25T19:36:32.963Z,99098.59
2018-12-25T19:39:01.179Z,99093.20
2018-12-25T19:41:29.499Z,99093.16
2018-12-25T19:43:57.724Z,99099.00
2018-12-25T19:46:25.954Z,99097.41
2018-12-25T19:48:54.085Z,99103.58
2018-12-25T19:51:23.003Z,99107.38
2018-12-25T19:53:51.170Z,99111.02
2018-12-25T19:56:19.410Z,99120.77
2018-12-25T19:58:47.594Z,99118.81
2018-12-25T20:01:15.786Z,99117.22
2018-12-25T20:04:06.285Z,99114.72
2018-12-25T20:06:52.379Z,99114.77
2018-12-25T20:09:39.727Z,99116.08
2018-12-25T20:12:29.925Z,99115.16
2018-12-25T20:15:16.442Z,99109.67
2018-12-25T20:17:55.146Z,99109.47
2018-12-25T20:20:41.245Z,99110.26
2018-12-25T20:23:27.249Z,99111.80
2018-12-25T20:26:17.409Z,99103.51
2018-12-25T20:29:23.098Z,99101.78
2018-12-25T20:32:13.401Z,99097.06
2018-12-25T20:35:03.451Z,99098.32
2018-12-25T20:37:52.010Z,99096.63
2018-12-25T20:40:38.146Z,99100.39
2018-12-25T20:43:43.665Z,99091.23
2018-12-25T20:46:36.938Z,99096.00
2018-12-25T20:49:33.310Z,99094.37
2018-12-25T20:52:19.469Z,99090.76
2018-12-25T20:55:01.165Z,99090.56
2018-12-25T20:57:54.871Z,99090.70
2018-12-25T21:00:45.195Z,99094.61
2018-12-25T21:03:38.056Z,99101.69
2018-12-25T21:06:28.378Z,99097.97
2018-12-25T21:09:27.563Z,99092.96
2018-12-25T21:12:14.814Z,99094.94
2018-12-25T21:15:00.947Z,99090.31
2018-12-25T21:17:51.584Z,99079.58
2018-12-25T21:20:51.203Z,99071.85
2018-12-25T21:23:37.899Z,99072.91
2018-12-25T21:26:24.319Z,99061.04
2018-12-25T21:28:52.418Z,99059.89
2018-12-25T21:31:21.277Z,99053.48
2018-12-25T21:33:49.461Z,99053.70
2018-12-25T21:36:18.154Z,99058.06
2018-12-25T21:38:47.160Z,99059.40
2018-12-25T21:41:15.403Z,99053.09
2018-12-25T21:43:43.525Z,99053.32
2018-12-25T21:46:11.739Z,99052.55
2018-12-25T21:48:39.891Z,99055.20
2018-12-25T21:51:08.010Z,99049.02
2018-12-25T21:53:36.129Z,99041.43
2018-12-25T21:56:04.290Z,99035.69
2018-12-25T21:58:32.419Z,99039.06
2018-12-25T22:01:00.575Z,99043.58
2018-12-25T22:03:28.745Z,99045.22
2018-12-25T22:05:56.844Z,99038.44
2018-12-25T22:08:24.997Z,99041.84
2018-12-25T22:10:53.123Z,99046.36
2018-12-25T22:13:21.250Z,99052.70
2018-12-25T22:15:49.366Z,99046.02
2018-12-25T22:18:17.558Z,99055.55
2018-12-25T22:20:45.889Z,99053.53
2018-12-25T22:23:14.042Z,99049.70
2018-12-25T22:25:42.424Z,99049.83
2018-12-25T22:28:10.557Z,99050.07
2018-12-25T22:30:38.789Z,99048.23
2018-12-25T22:33:06.947Z,99044.48
2018-12-25T22:35:35.135Z,99042.14
2018-12-25T22:38:03.287Z,99050.64
2018-12-25T22:40:31.449Z,99045.23
2018-12-25T22:42:59.659Z,99039.31
2018-12-25T22:45:27.819Z,99041.70
2018-12-25T22:47:56.006Z,99039.23
2018-12-25T22:50:24.245Z,99040.23
2018-12-25T22:52:52.398Z,99035.21
2018-12-25T22:55:20.549Z,99033.32
2018-12-25T22:57:48.713Z,99031.09
2018-12-25T23:00:17.935Z,99033.03
2018-12-25T23:02:46.091Z,99026.05
2018-12-25T23:05:14.282Z,99028.67
2018-12-25T23:07:42.424Z,99022.31
2018-12-25T23:10:10.638Z,99020.52
2018-12-25T23:12:38.843Z,99009.99
2018-12-25T23:15:07.855Z,99016.39
2018-12-25T23:17:36.116Z,99019.91
2018-12-25T23:20:04.695Z,99019.69
2018-12-25T23:22:32.904Z,99022.22
2018-12-25T23:25:01.085Z,99018.93
2018-12-25T23:27:29.236Z,99007.64
2018-12-25T23:29:57.448Z,99011.61
2018-12-25T23:32:25.722Z,99005.19
2018-12-25T23:34:53.877Z,99000.86
2018-12-25T23:37:22.098Z,98995.30
2018-12-25T23:39:50.256Z,99001.21
2018-12-25T23:42:18.443Z,98987.52
2018-12-25T23:44:46.602Z,98993.79
2018-12-25T23:47:14.813Z,98991.55
2018-12-25T23:49:43.041Z,98988.84
2018-12-25T23:52:11.238Z,98991.03
2018-12-25T23:54:39.428Z,98996.65
2018-12-25T23:57:07.607Z,99000.62
2018-12-25T23:59:35.840Z,99007.89
